Time;durP1;ratioP1;P1;durP2;ratioP2;P2;SDS_P1;SDS_P2;PMS_P1;PMS_P2;Temp;Humidity;BMP_temperature;BMP_pressure;BME280_temperature;BME280_humidity;BME280_pressure;Samples;Min_cycle;Max_cycle;Signal;HPM_P1;HPM_P2
2022/06/24 00:02:18;;;;;;;13.80;9.43;;;21.60;1.00;;;;;;5031443;28;20478;-79
2022/06/24 00:04:51;;;;;;;12.30;9.20;;;21.60;1.00;;;;;;5034123;28;20536;-79
2022/06/24 00:07:17;;;;;;;13.33;8.87;;;21.60;1.00;;;;;;5034008;28;20201;-79
2022/06/24 00:09:44;;;;;;;13.57;9.37;;;21.60;1.00;;;;;;5035816;28;20472;-80
2022/06/24 00:12:15;;;;;;;11.80;9.03;;;21.60;1.00;;;;;;5026140;28;20432;-80
2022/06/24 00:14:45;;;;;;;10.43;7.30;;;21.50;1.00;;;;;;5031807;28;20857;-79
2022/06/24 00:17:11;;;;;;;12.20;8.83;;;21.50;1.00;;;;;;5026191;28;20968;-80
2022/06/24 00:19:58;;;;;;;15.93;7.30;;;21.50;1.00;;;;;;5030924;28;20844;-80
2022/06/24 00:22:25;;;;;;;10.00;6.70;;;21.50;1.00;;;;;;5029654;28;20441;-80
2022/06/24 00:25:19;;;;;;;12.23;6.63;;;21.50;1.00;;;;;;5030187;28;20473;-80
2022/06/24 00:28:07;;;;;;;9.70;6.73;;;21.50;1.00;;;;;;5030846;28;20455;-79
2022/06/24 00:30:41;;;;;;;12.60;6.43;;;21.50;1.00;;;;;;5030196;28;20439;-80
2022/06/24 00:33:11;;;;;;;12.10;7.23;;;21.50;1.00;;;;;;5030048;28;20438;-79
2022/06/24 00:35:45;;;;;;;12.63;7.30;;;21.50;1.00;;;;;;5031618;28;20452;-80
2022/06/24 00:38:35;;;;;;;11.90;6.60;;;21.50;1.00;;;;;;5029692;28;20479;-80
2022/06/24 00:41:07;;;;;;;8.53;6.10;;;21.60;1.00;;;;;;5031084;28;20428;-80
2022/06/24 00:43:38;;;;;;;7.27;6.53;;;21.60;1.00;;;;;;5033798;28;20439;-81
2022/06/24 00:46:15;;;;;;;10.20;6.37;;;21.60;1.00;;;;;;5031570;28;20435;-80
2022/06/24 00:48:46;;;;;;;9.60;5.77;;;21.60;1.00;;;;;;5034313;28;20471;-80
2022/06/24 00:51:11;;;;;;;21.63;6.37;;;21.70;1.00;;;;;;5031009;28;20943;-80
2022/06/24 00:53:41;;;;;;;10.13;5.90;;;21.70;1.00;;;;;;5033072;28;20523;-81
2022/06/24 00:56:09;;;;;;;11.27;6.00;;;21.70;1.00;;;;;;5026382;28;20192;-80
2022/06/24 00:58:34;;;;;;;12.33;5.80;;;21.70;1.00;;;;;;5029930;28;20987;-81
2022/06/24 01:01:01;;;;;;;5.53;4.60;;;21.60;1.00;;;;;;5027932;28;20440;-80
2022/06/24 01:03:40;;;;;;;6.70;4.70;;;21.50;1.00;;;;;;5031207;28;20247;-80
2022/06/24 01:06:07;;;;;;;8.57;4.90;;;21.50;1.00;;;;;;5027125;28;20431;-79
2022/06/24 01:08:33;;;;;;;6.87;4.37;;;21.50;1.00;;;;;;5028487;28;20501;-81
2022/06/24 01:10:59;;;;;;;4.77;4.10;;;21.40;1.00;;;;;;5029341;28;20434;-80
2022/06/24 01:13:25;;;;;;;11.10;4.40;;;21.40;1.00;;;;;;5030905;28;20470;-81
2022/06/24 01:15:51;;;;;;;8.07;5.50;;;21.40;1.00;;;;;;5028717;28;20201;-82
2022/06/24 01:18:16;;;;;;;8.17;4.47;;;21.40;1.00;;;;;;5027601;28;20474;-81
2022/06/24 01:20:42;;;;;;;7.67;4.63;;;21.40;1.00;;;;;;5033098;28;20182;-81
2022/06/24 01:23:08;;;;;;;10.00;5.03;;;21.30;1.00;;;;;;5026356;28;20225;-81
2022/06/24 01:25:33;;;;;;;5.10;4.60;;;21.30;1.00;;;;;;5023722;28;20575;-80
2022/06/24 01:27:59;;;;;;;8.40;5.20;;;21.30;1.00;;;;;;5031370;28;20574;-80
2022/06/24 01:30:26;;;;;;;7.53;5.80;;;21.30;1.00;;;;;;5024310;28;20187;-80
2022/06/24 01:32:51;;;;;;;7.73;5.13;;;21.20;1.00;;;;;;5023534;28;20531;-81
2022/06/24 01:35:17;;;;;;;7.97;6.17;;;21.20;1.00;;;;;;5023625;28;20874;-81
2022/06/24 01:37:42;;;;;;;8.07;5.60;;;21.20;1.00;;;;;;5028751;28;20232;-81
2022/06/24 01:40:09;;;;;;;8.37;6.50;;;21.20;1.00;;;;;;5025394;28;20205;-80
2022/06/24 01:42:34;;;;;;;6.97;5.90;;;21.20;1.00;;;;;;5025844;28;20207;-81
2022/06/24 01:45:00;;;;;;;8.87;7.40;;;21.20;1.00;;;;;;5021685;28;20435;-80
2022/06/24 01:47:26;;;;;;;8.80;8.00;;;21.10;1.00;;;;;;5027551;28;20209;-80
2022/06/24 01:49:51;;;;;;;11.70;9.27;;;21.10;1.00;;;;;;5031901;28;20462;-80
2022/06/24 01:52:17;;;;;;;10.40;9.30;;;21.20;1.00;;;;;;5028403;28;20186;-81
2022/06/24 01:54:43;;;;;;;11.27;9.50;;;21.10;1.00;;;;;;5024709;28;20257;-81
2022/06/24 01:57:08;;;;;;;10.60;9.60;;;21.10;1.00;;;;;;5031429;28;20189;-80
2022/06/24 01:59:34;;;;;;;12.60;9.93;;;21.10;1.00;;;;;;5026268;28;20208;-82
2022/06/24 02:01:59;;;;;;;13.60;10.83;;;21.00;1.00;;;;;;5029440;28;20208;-80
2022/06/24 02:04:25;;;;;;;13.60;10.90;;;21.00;1.00;;;;;;5022437;28;20181;-82
2022/06/24 02:06:50;;;;;;;12.73;11.43;;;20.90;1.00;;;;;;5025674;28;20183;-81
2022/06/24 02:09:16;;;;;;;13.13;11.47;;;20.90;1.00;;;;;;5022573;28;20689;-80
2022/06/24 02:14:27;;;;;;;13.90;12.20;;;20.80;1.00;;;;;;5020180;28;20432;-81
2022/06/24 02:16:53;;;;;;;14.13;12.63;;;20.80;1.00;;;;;;5028598;28;20447;-81
2022/06/24 02:19:19;;;;;;;19.57;12.40;;;20.80;1.00;;;;;;5025097;28;20243;-81
2022/06/24 02:21:45;;;;;;;14.50;11.67;;;20.80;1.00;;;;;;5028306;28;20195;-82
2022/06/24 02:24:13;;;;;;;12.63;11.33;;;20.80;1.00;;;;;;5024385;28;20434;-80
2022/06/24 02:26:39;;;;;;;14.60;12.53;;;20.80;1.00;;;;;;5028393;28;20180;-81
2022/06/24 02:29:05;;;;;;;15.43;12.23;;;20.70;1.00;;;;;;5021500;28;20464;-81
2022/06/24 02:31:30;;;;;;;13.93;12.57;;;20.70;1.00;;;;;;5029239;28;20438;-81
2022/06/24 02:33:56;;;;;;;13.37;11.93;;;20.70;1.00;;;;;;5023386;28;20667;-80
2022/06/24 02:36:22;;;;;;;16.67;12.03;;;20.70;1.00;;;;;;5027628;28;20186;-81
2022/06/24 02:38:47;;;;;;;12.13;10.93;;;20.70;1.00;;;;;;5021607;28;20470;-80
2022/06/24 02:41:13;;;;;;;12.50;11.27;;;20.70;1.00;;;;;;5026293;28;20236;-80
2022/06/24 02:43:39;;;;;;;13.07;11.57;;;20.70;1.00;;;;;;5022436;28;20207;-81
2022/06/24 02:46:08;;;;;;;13.27;11.03;;;20.70;1.00;;;;;;5025911;28;20326;-81
2022/06/24 02:48:35;;;;;;;11.53;10.37;;;20.70;1.00;;;;;;5021073;28;20506;-81
2022/06/24 02:51:03;;;;;;;12.93;11.73;;;20.70;1.00;;;;;;5025602;28;20444;-81
2022/06/24 02:53:29;;;;;;;12.90;11.53;;;20.70;1.00;;;;;;5026363;28;20957;-81
2022/06/24 02:56:00;;;;;;;13.60;11.03;;;20.70;1.00;;;;;;5023728;28;20437;-80
2022/06/24 02:58:26;;;;;;;12.70;11.50;;;20.80;1.00;;;;;;5023995;28;20477;-81
2022/06/24 03:00:52;;;;;;;12.90;11.23;;;20.80;1.00;;;;;;5021830;28;20858;-82
2022/06/24 03:03:21;;;;;;;11.90;10.90;;;20.80;1.00;;;;;;5021550;28;20435;-81
2022/06/24 03:05:48;;;;;;;13.37;12.00;;;20.80;1.00;;;;;;5021275;28;20433;-80
2022/06/24 03:08:15;;;;;;;16.07;12.03;;;20.80;1.00;;;;;;5022137;28;20538;-80
2022/06/24 03:10:41;;;;;;;13.80;12.40;;;20.80;1.00;;;;;;5020738;28;20468;-81
2022/06/24 03:13:07;;;;;;;14.40;12.60;;;20.80;1.00;;;;;;5022077;28;20462;-80
2022/06/24 03:15:33;;;;;;;14.67;13.17;;;20.70;1.00;;;;;;5020097;28;20469;-80
2022/06/24 03:17:59;;;;;;;17.17;13.57;;;20.70;1.00;;;;;;5045048;28;20482;-81
2022/06/24 03:20:25;;;;;;;13.10;11.80;;;20.70;1.00;;;;;;5021906;28;20675;-81
2022/06/24 03:22:51;;;;;;;17.30;12.63;;;20.70;1.00;;;;;;5022307;28;20187;-81
2022/06/24 03:25:17;;;;;;;14.43;13.00;;;20.70;1.00;;;;;;5031287;28;20842;-81
2022/06/24 03:27:42;;;;;;;13.10;11.80;;;20.70;1.00;;;;;;5032272;28;20227;-82
2022/06/24 03:30:10;;;;;;;18.47;12.40;;;20.70;1.00;;;;;;5034004;28;20175;-81
2022/06/24 03:32:35;;;;;;;14.13;12.10;;;20.70;1.00;;;;;;5028350;28;20188;-81
2022/06/24 03:35:02;;;;;;;14.80;12.77;;;20.70;1.00;;;;;;5035975;28;20485;-80
2022/06/24 03:37:31;;;;;;;13.33;12.00;;;20.70;1.00;;;;;;5025298;28;20204;-81
2022/06/24 03:39:58;;;;;;;14.63;12.40;;;20.70;1.00;;;;;;5030170;28;20564;-80
2022/06/24 03:42:24;;;;;;;14.07;12.80;;;20.80;1.00;;;;;;5024241;28;20870;-80
2022/06/24 03:44:50;;;;;;;17.47;13.50;;;20.80;1.00;;;;;;5027120;28;20472;-81
2022/06/24 03:47:16;;;;;;;13.70;12.30;;;20.80;1.00;;;;;;5027958;28;20551;-81
2022/06/24 03:49:41;;;;;;;14.03;12.63;;;20.80;1.00;;;;;;5026177;28;20213;-81
2022/06/24 03:52:07;;;;;;;14.80;12.13;;;20.80;1.00;;;;;;5032819;28;20442;-81
2022/06/24 03:54:34;;;;;;;15.17;13.20;;;20.80;1.00;;;;;;5025582;28;20278;-80
2022/06/24 03:57:00;;;;;;;14.13;12.50;;;20.80;1.00;;;;;;5028004;28;20436;-81
2022/06/24 03:59:26;;;;;;;14.83;13.17;;;20.90;1.00;;;;;;5024190;28;20898;-80
2022/06/24 04:01:51;;;;;;;15.73;12.77;;;20.90;1.00;;;;;;5032331;28;20438;-81
2022/06/24 04:04:17;;;;;;;14.63;13.20;;;20.90;1.00;;;;;;5031195;28;20211;-81
2022/06/24 04:06:42;;;;;;;14.87;12.33;;;21.00;1.00;;;;;;5032767;28;20180;-83
2022/06/24 04:09:08;;;;;;;14.20;12.70;;;21.00;1.00;;;;;;5034410;28;20213;-80
2022/06/24 04:11:33;;;;;;;18.70;14.27;;;21.00;1.00;;;;;;5032176;28;20215;-81
2022/06/24 04:14:00;;;;;;;18.43;14.57;;;21.00;1.00;;;;;;5032841;28;20193;-81
2022/06/24 04:16:26;;;;;;;14.53;13.13;;;21.10;1.00;;;;;;5030016;28;20280;-81
2022/06/24 04:18:52;;;;;;;15.67;14.17;;;21.10;1.00;;;;;;5028952;28;20480;-82
2022/06/24 04:21:18;;;;;;;17.07;15.57;;;21.10;1.00;;;;;;5030772;28;20481;-81
2022/06/24 04:23:46;;;;;;;16.00;14.33;;;21.20;1.00;;;;;;5025674;28;20440;-81
2022/06/24 04:26:12;;;;;;;14.03;12.57;;;21.20;1.00;;;;;;5028486;28;20450;-81
2022/06/24 04:28:38;;;;;;;15.87;11.50;;;21.20;1.00;;;;;;5030594;28;20806;-82
2022/06/24 04:31:04;;;;;;;13.10;11.70;;;21.20;1.00;;;;;;5030009;28;20577;-82
2022/06/24 04:33:30;;;;;;;15.47;10.83;;;21.20;1.00;;;;;;5023987;28;20514;-82
2022/06/24 04:35:56;;;;;;;12.77;11.50;;;21.20;1.00;;;;;;5025445;28;20997;-82
2022/06/24 04:38:22;;;;;;;14.13;11.37;;;21.20;1.00;;;;;;5032255;28;20478;-82
2022/06/24 04:40:48;;;;;;;16.10;12.10;;;21.10;1.00;;;;;;5032274;28;20180;-82
2022/06/24 04:43:13;;;;;;;17.37;10.80;;;21.10;1.00;;;;;;5029320;28;20188;-81
2022/06/24 04:45:39;;;;;;;14.53;11.13;;;21.10;1.00;;;;;;5027958;28;20449;-82
2022/06/24 04:48:05;;;;;;;20.17;10.37;;;21.10;1.00;;;;;;5026485;28;20225;-82
2022/06/24 04:50:31;;;;;;;16.57;11.03;;;21.00;1.00;;;;;;5028761;28;20452;-81
2022/06/24 04:52:57;;;;;;;15.53;10.80;;;21.00;1.00;;;;;;5030869;28;20440;-82
2022/06/24 04:55:23;;;;;;;17.23;10.97;;;21.00;1.00;;;;;;5033228;28;20498;-81
2022/06/24 04:57:48;;;;;;;11.87;9.90;;;20.90;1.00;;;;;;5027397;28;20240;-82
2022/06/24 05:00:15;;;;;;;12.10;10.00;;;20.90;1.00;;;;;;5028453;28;20256;-81
2022/06/24 05:02:41;;;;;;;10.23;9.13;;;21.00;1.00;;;;;;5029688;28;20186;-81
2022/06/24 05:05:08;;;;;;;12.07;10.33;;;21.00;1.00;;;;;;5027728;28;20433;-81
2022/06/24 05:07:34;;;;;;;19.30;11.50;;;21.00;1.00;;;;;;5023910;28;20461;-81
2022/06/24 05:10:00;;;;;;;12.87;11.03;;;21.10;1.00;;;;;;5027617;28;20453;-81
2022/06/24 05:12:25;;;;;;;12.40;10.97;;;21.20;1.00;;;;;;5027859;28;20197;-82
2022/06/24 05:14:51;;;;;;;13.03;11.37;;;21.30;1.00;;;;;;5027994;28;20208;-81
2022/06/24 05:17:16;;;;;;;13.40;11.83;;;21.30;1.00;;;;;;5025232;28;20272;-81
2022/06/24 05:19:42;;;;;;;15.87;12.23;;;21.40;1.00;;;;;;5025894;28;20237;-81
2022/06/24 05:22:07;;;;;;;17.00;12.03;;;21.50;1.00;;;;;;5027663;28;20193;-81
2022/06/24 05:24:33;;;;;;;16.43;11.47;;;21.50;1.00;;;;;;5027505;28;20193;-81
2022/06/24 05:26:59;;;;;;;14.50;12.50;;;21.50;1.00;;;;;;5031711;28;20216;-80
2022/06/24 05:29:24;;;;;;;20.40;12.83;;;21.50;1.00;;;;;;5028587;28;20196;-81
2022/06/24 05:31:50;;;;;;;17.23;12.03;;;21.60;1.00;;;;;;5023382;28;20193;-82
2022/06/24 05:34:15;;;;;;;15.00;11.00;;;21.60;1.00;;;;;;5031678;28;20201;-80
2022/06/24 05:36:42;;;;;;;15.50;11.50;;;21.70;1.00;;;;;;5027894;28;20547;-81
2022/06/24 05:39:08;;;;;;;16.20;11.93;;;21.80;1.00;;;;;;5029584;28;20221;-81
2022/06/24 05:41:37;;;;;;;13.80;10.30;;;21.80;1.00;;;;;;5027190;28;20432;-81
2022/06/24 05:44:02;;;;;;;15.10;10.50;;;21.80;1.00;;;;;;5032084;28;20917;-82
2022/06/24 05:46:28;;;;;;;11.80;10.60;;;21.90;1.00;;;;;;5028237;28;20504;-83
2022/06/24 05:48:55;;;;;;;16.50;11.37;;;21.90;1.00;;;;;;5033810;28;20234;-83
2022/06/24 05:51:21;;;;;;;12.27;10.93;;;21.90;1.00;;;;;;5034462;28;20428;-83
2022/06/24 05:56:31;;;;;;;18.90;10.90;;;21.80;1.00;;;;;;5036104;28;20196;-84
2022/06/24 05:58:57;;;;;;;14.33;11.60;;;21.70;1.00;;;;;;5035086;28;20480;-83
2022/06/24 06:01:24;;;;;;;15.50;12.30;;;21.60;1.00;;;;;;5036939;28;20436;-83
2022/06/24 06:03:49;;;;;;;16.93;11.77;;;21.60;1.00;;;;;;5037409;28;20458;-83
2022/06/24 06:06:15;;;;;;;16.30;12.20;;;21.50;1.00;;;;;;5033115;28;20496;-84
2022/06/24 06:08:41;;;;;;;14.03;12.67;;;21.50;1.00;;;;;;5034762;28;20213;-82
2022/06/24 06:11:19;;;;;;;20.53;14.73;;;21.40;1.00;;;;;;5027649;28;20448;-81
2022/06/24 06:13:47;;;;;;;20.73;18.00;;;21.30;1.00;;;;;;5028469;28;20475;-82
2022/06/24 06:16:12;;;;;;;20.13;16.30;;;21.20;1.00;;;;;;5025699;28;20961;-81
2022/06/24 06:18:38;;;;;;;21.80;17.00;;;21.10;1.00;;;;;;5028747;28;20476;-81
2022/06/24 06:21:06;;;;;;;19.10;14.30;;;21.00;1.00;;;;;;5031100;28;20773;-83
2022/06/24 06:23:32;;;;;;;24.40;15.90;;;21.00;1.00;;;;;;5029309;28;20439;-81
2022/06/24 06:25:59;;;;;;;16.13;14.43;;;20.90;1.00;;;;;;5027089;28;20472;-82
2022/06/24 06:28:25;;;;;;;18.57;13.30;;;20.90;1.00;;;;;;5026576;28;20497;-81
2022/06/24 06:30:51;;;;;;;15.50;12.90;;;20.90;1.00;;;;;;5026191;28;20451;-81
2022/06/24 06:33:17;;;;;;;13.90;12.50;;;21.00;1.00;;;;;;5028307;28;20943;-82
2022/06/24 06:35:43;;;;;;;14.37;11.80;;;21.00;1.00;;;;;;5032202;28;20556;-82
2022/06/24 06:38:09;;;;;;;13.33;11.93;;;21.10;1.00;;;;;;5027166;28;20482;-81
2022/06/24 06:40:35;;;;;;;12.47;11.27;;;21.10;1.00;;;;;;5027787;28;20197;-82
2022/06/24 06:43:02;;;;;;;12.53;11.23;;;21.10;1.00;;;;;;5026989;28;20228;-81
2022/06/24 06:45:28;;;;;;;13.80;12.00;;;21.10;1.00;;;;;;5031990;28;20436;-81
2022/06/24 06:47:54;;;;;;;13.80;12.40;;;21.10;1.00;;;;;;5027232;28;20520;-80
2022/06/24 06:50:19;;;;;;;14.20;12.43;;;21.10;1.00;;;;;;5026851;28;20447;-81
2022/06/24 06:52:45;;;;;;;14.07;12.63;;;21.10;1.00;;;;;;5026432;28;20252;-80
2022/06/24 06:55:11;;;;;;;13.23;12.03;;;21.20;1.00;;;;;;5033462;28;20182;-81
2022/06/24 06:57:37;;;;;;;15.83;12.90;;;21.20;1.00;;;;;;5026349;28;20220;-81
2022/06/24 07:00:04;;;;;;;16.27;13.40;;;21.30;1.00;;;;;;5027099;28;20221;-81
2022/06/24 07:02:30;;;;;;;13.40;11.77;;;21.30;1.00;;;;;;5031205;28;21016;-80
2022/06/24 07:04:55;;;;;;;10.37;9.37;;;21.20;1.00;;;;;;5028345;28;20441;-81
2022/06/24 07:07:21;;;;;;;8.20;7.10;;;21.20;1.00;;;;;;5031813;28;20589;-81
2022/06/24 07:09:47;;;;;;;7.23;6.53;;;21.20;1.00;;;;;;5027268;28;20206;-81
2022/06/24 07:12:13;;;;;;;8.43;7.60;;;21.10;1.00;;;;;;5031760;28;20526;-81
2022/06/24 07:14:42;;;;;;;6.70;6.00;;;21.20;1.00;;;;;;5026527;28;20204;-80
2022/06/24 07:17:08;;;;;;;6.70;6.20;;;21.30;1.00;;;;;;5027555;28;20444;-82
2022/06/24 07:19:34;;;;;;;7.07;5.77;;;21.40;1.00;;;;;;5025466;28;20534;-82
2022/06/24 07:21:59;;;;;;;6.80;5.63;;;21.50;1.00;;;;;;5029800;28;20523;-80
2022/06/24 07:24:25;;;;;;;9.90;6.40;;;21.70;1.00;;;;;;5030841;28;20178;-82
2022/06/24 07:26:51;;;;;;;7.10;6.43;;;22.00;1.00;;;;;;5031594;28;20191;-81
2022/06/24 07:29:16;;;;;;;8.20;6.30;;;22.20;1.00;;;;;;5026087;28;20221;-82
2022/06/24 07:31:42;;;;;;;8.93;6.60;;;22.70;99.90;;;;;;5024182;28;20200;-81
2022/06/24 07:34:07;;;;;;;8.50;6.33;;;22.90;99.90;;;;;;5030464;28;20659;-80
2022/06/24 07:36:33;;;;;;;10.00;5.93;;;22.90;99.90;;;;;;5019713;28;20192;-82
2022/06/24 07:38:59;;;;;;;6.33;5.73;;;22.90;8.30;;;;;;5025981;28;20213;-83
2022/06/24 07:41:25;;;;;;;8.30;6.10;;;23.00;1.00;;;;;;5025852;28;20197;-81
2022/06/24 07:43:50;;;;;;;7.17;6.47;;;23.30;1.00;;;;;;5026427;28;20525;-81
2022/06/24 07:46:16;;;;;;;7.67;6.77;;;23.70;99.90;;;;;;5024259;28;20678;-82
2022/06/24 07:48:42;;;;;;;7.53;6.80;;;24.10;1.00;;;;;;5028762;28;20230;-83
2022/06/24 07:51:09;;;;;;;8.63;7.10;;;24.20;99.90;;;;;;5025418;28;20440;-82
2022/06/24 07:53:35;;;;;;;8.70;7.90;;;24.20;1.00;;;;;;5027185;28;20273;-81
2022/06/24 07:58:44;;;;;;;10.70;7.70;;;23.80;99.90;;;;;;5025950;28;20251;-81
2022/06/24 08:01:10;;;;;;;9.20;7.70;;;23.60;1.00;;;;;;5030487;28;20443;-82
2022/06/24 08:03:35;;;;;;;8.57;6.80;;;23.60;44.10;;;;;;5027750;28;20196;-82
2022/06/24 08:06:01;;;;;;;7.03;6.33;;;23.60;99.90;;;;;;5027443;28;20193;-81
2022/06/24 08:08:26;;;;;;;7.20;6.50;;;23.50;1.00;;;;;;5029703;28;20220;-82
2022/06/24 08:10:52;;;;;;;9.67;7.40;;;23.50;1.00;;;;;;5029787;28;20573;-81
2022/06/24 08:13:17;;;;;;;11.07;6.93;;;23.40;1.00;;;;;;5032708;28;20632;-81
2022/06/24 08:15:43;;;;;;;8.37;7.57;;;23.30;1.00;;;;;;5030928;28;20233;-81
2022/06/24 08:18:09;;;;;;;8.30;7.53;;;23.20;1.00;;;;;;5029132;28;20302;-80
2022/06/24 08:20:34;;;;;;;9.53;8.47;;;23.20;1.00;;;;;;5033467;28;20673;-81
2022/06/24 08:23:00;;;;;;;9.37;8.47;;;23.10;99.90;;;;;;5026113;28;20191;-82
2022/06/24 08:25:25;;;;;;;9.50;8.53;;;23.10;99.90;;;;;;5033183;28;20185;-80
2022/06/24 08:27:51;;;;;;;10.30;9.40;;;23.10;99.90;;;;;;5027628;28;20215;-81
2022/06/24 08:30:17;;;;;;;9.10;8.10;;;23.20;99.90;;;;;;5031660;28;20215;-81
2022/06/24 08:32:43;;;;;;;9.70;8.67;;;23.30;99.90;;;;;;5029074;28;20447;-80
2022/06/24 08:35:08;;;;;;;11.73;9.40;;;23.40;1.00;;;;;;5036079;28;20764;-82
2022/06/24 08:37:34;;;;;;;9.33;8.33;;;23.60;99.90;;;;;;5030221;28;20228;-82
2022/06/24 08:40:00;;;;;;;10.67;9.57;;;23.80;48.10;;;;;;5032659;28;20263;-81
2022/06/24 08:42:28;;;;;;;11.80;9.10;;;24.10;1.00;;;;;;5028994;28;20201;-82
2022/06/24 08:44:59;;;;;;;9.70;8.80;;;24.40;1.00;;;;;;5029381;28;20807;-83
2022/06/24 08:47:25;;;;;;;10.13;8.43;;;24.80;1.00;;;;;;5027716;28;20838;-81
2022/06/24 08:49:50;;;;;;;9.47;8.50;;;25.10;1.00;;;;;;5032575;28;20423;-81
2022/06/24 08:52:17;;;;;;;8.83;8.03;;;25.50;1.00;;;;;;5029392;28;20197;-82
2022/06/24 08:54:44;;;;;;;8.80;7.57;;;25.90;99.90;;;;;;5032178;28;20202;-81
2022/06/24 08:57:11;;;;;;;8.03;6.53;;;26.70;99.90;;;;;;5030880;28;20432;-80
2022/06/24 08:59:37;;;;;;;7.30;5.83;;;28.60;99.90;;;;;;5030288;28;20460;-78
2022/06/24 09:02:03;;;;;;;6.00;5.37;;;31.30;1.00;;;;;;5026283;28;21010;-78
2022/06/24 09:04:33;;;;;;;8.33;5.43;;;33.80;99.90;;;;;;5024782;28;20233;-80
2022/06/24 09:07:00;;;;;;;4.40;4.00;;;37.20;99.90;;;;;;5031276;28;20488;-80
2022/06/24 09:09:26;;;;;;;4.57;3.23;;;37.90;99.90;;;;;;5030553;28;20428;-81
2022/06/24 09:11:56;;;;;;;3.37;2.83;;;39.90;99.90;;;;;;5029280;28;20444;-79
2022/06/24 09:14:22;;;;;;;3.77;3.40;;;41.50;99.90;;;;;;5030454;28;20805;-80
2022/06/24 09:16:47;;;;;;;5.33;3.97;;;40.50;99.90;;;;;;5028472;28;20436;-79
2022/06/24 09:19:15;;;;;;;5.13;3.27;;;39.60;99.90;;;;;;5032383;28;20492;-79
2022/06/24 09:21:42;;;;;;;3.47;3.10;;;39.50;99.90;;;;;;5031467;28;20238;-80
2022/06/24 09:24:09;;;;;;;3.47;3.17;;;42.00;99.90;;;;;;5028777;28;20432;-80
2022/06/24 09:26:39;;;;;;;4.17;3.67;;;43.10;99.90;;;;;;5029939;28;20437;-79
2022/06/24 09:29:07;;;;;;;6.07;2.70;;;40.80;99.90;;;;;;5029317;28;20460;-80
2022/06/24 09:31:34;;;;;;;6.70;3.93;;;40.50;99.90;;;;;;5029309;28;20477;-79
2022/06/24 09:34:10;;;;;;;3.80;3.20;;;39.50;99.90;;;;;;5029374;28;20433;-79
2022/06/24 09:36:37;;;;;;;4.17;3.43;;;42.00;99.90;;;;;;5029028;28;20439;-80
2022/06/24 09:39:05;;;;;;;7.70;2.90;;;44.00;99.90;;;;;;5029693;28;20469;-82
2022/06/24 09:41:47;;;;;;;3.87;3.00;;;45.20;99.90;;;;;;5030284;28;20456;-80
2022/06/24 09:44:14;;;;;;;6.10;3.57;;;43.00;99.90;;;;;;5031178;28;20528;-80
2022/06/24 09:46:41;;;;;;;3.33;2.70;;;40.80;99.90;;;;;;5031094;28;20433;-80
2022/06/24 09:49:09;;;;;;;3.57;2.57;;;42.50;99.90;;;;;;5030630;28;20506;-81
2022/06/24 09:51:35;;;;;;;2.80;2.30;;;44.00;99.90;;;;;;5031604;28;20437;-81
2022/06/24 09:54:01;;;;;;;3.73;2.53;;;44.40;99.90;;;;;;5030561;28;20452;-80
2022/06/24 09:56:27;;;;;;;5.73;2.37;;;45.90;99.90;;;;;;5031973;28;20182;-82
2022/06/24 10:01:41;;;;;;;3.90;3.07;;;47.60;99.90;;;;;;5031640;28;20959;-80
2022/06/24 10:04:11;;;;;;;2.47;2.27;;;47.60;99.90;;;;;;5027011;28;20421;-81
2022/06/24 10:06:37;;;;;;;5.27;2.93;;;47.30;99.90;;;;;;5025306;28;21030;-80
2022/06/24 10:09:07;;;;;;;4.37;2.93;;;47.10;99.90;;;;;;5023361;28;20464;-80
2022/06/24 10:11:34;;;;;;;3.80;3.17;;;46.80;99.90;;;;;;5025064;28;21210;-81
2022/06/24 10:14:01;;;;;;;3.47;2.53;;;46.20;99.90;;;;;;5029581;28;20440;-81
2022/06/24 10:16:26;;;;;;;3.33;2.13;;;43.40;99.90;;;;;;5023696;28;20426;-82
2022/06/24 10:18:52;;;;;;;2.83;1.80;;;43.80;99.90;;;;;;5028607;28;20461;-80
2022/06/24 10:21:19;;;;;;;2.33;2.10;;;42.80;99.90;;;;;;5023402;28;20186;-80
2022/06/24 10:23:47;;;;;;;2.03;1.40;;;43.30;99.90;;;;;;5030375;28;20479;-80
2022/06/24 10:26:30;;;;;;;5.27;2.17;;;43.70;99.90;;;;;;5023687;28;20465;-81
2022/06/24 10:28:59;;;;;;;7.00;2.93;;;44.10;99.90;;;;;;5030114;28;20459;-81
2022/06/24 10:31:52;;;;;;;3.80;3.50;;;44.60;99.90;;;;;;5024568;28;20445;-80
2022/06/24 10:34:25;;;;;;;3.83;3.07;;;43.80;99.90;;;;;;5024238;28;20434;-80
2022/06/24 10:36:52;;;;;;;3.60;1.87;;;41.90;99.90;;;;;;5025640;28;20449;-80
2022/06/24 10:39:23;;;;;;;4.43;1.73;;;41.70;99.90;;;;;;5026895;28;20469;-80
2022/06/24 10:41:59;;;;;;;1.90;1.70;;;41.90;99.90;;;;;;5025814;28;20933;-80
2022/06/24 10:44:36;;;;;;;4.33;2.73;;;41.80;99.90;;;;;;5023262;28;20436;-81
2022/06/24 10:47:04;;;;;;;4.30;2.37;;;40.00;97.30;;;;;;5025437;28;20515;-80
2022/06/24 10:49:52;;;;;;;4.30;3.03;;;38.40;96.40;;;;;;5025045;28;20433;-80
2022/06/24 10:52:32;;;;;;;3.87;2.87;;;37.10;94.90;;;;;;5026939;28;20456;-79
2022/06/24 10:57:42;;;;;;;3.13;2.40;;;34.50;93.90;;;;;;5023346;28;20452;-80
2022/06/24 11:00:12;;;;;;;5.53;2.70;;;33.50;94.30;;;;;;5023386;28;20882;-79
2022/06/24 11:02:38;;;;;;;4.70;3.00;;;32.60;95.50;;;;;;5027744;28;20464;-79
2022/06/24 11:05:11;;;;;;;2.50;2.30;;;31.70;95.90;;;;;;5024033;28;20440;-79
2022/06/24 11:07:48;;;;;;;4.13;3.00;;;31.00;96.80;;;;;;5023084;28;20205;-78
2022/06/24 11:10:31;;;;;;;3.53;2.47;;;30.60;98.30;;;;;;5025375;28;20523;-79
2022/06/24 11:13:02;;;;;;;4.13;2.90;;;30.40;99.90;;;;;;5025500;28;20428;-80
2022/06/24 11:15:36;;;;;;;4.47;3.30;;;30.10;99.90;;;;;;5018689;28;20445;-79
2022/06/24 11:18:05;;;;;;;4.20;3.10;;;29.80;99.90;;;;;;5019011;28;20486;-78
2022/06/24 11:20:33;;;;;;;4.33;2.80;;;29.60;99.90;;;;;;5018700;28;20445;-79
2022/06/24 11:22:59;;;;;;;4.20;3.80;;;29.50;99.90;;;;;;5018917;28;20845;-80
2022/06/24 11:25:27;;;;;;;7.17;3.60;;;30.20;99.90;;;;;;5019343;28;20472;-79
2022/06/24 11:27:53;;;;;;;4.20;3.20;;;31.70;99.90;;;;;;5019526;28;20206;-80
2022/06/24 11:30:18;;;;;;;3.53;3.20;;;33.40;99.90;;;;;;5019454;28;20859;-80
2022/06/24 11:32:59;;;;;;;3.30;3.00;;;34.10;99.90;;;;;;5022838;28;20191;-80
2022/06/24 11:35:26;;;;;;;4.13;3.60;;;34.70;99.90;;;;;;5018625;28;20183;-80
2022/06/24 11:37:56;;;;;;;5.03;3.60;;;35.20;99.90;;;;;;5019853;28;20499;-80
2022/06/24 11:40:26;;;;;;;3.20;2.60;;;36.00;99.90;;;;;;5024730;28;20881;-80
2022/06/24 11:42:52;;;;;;;2.70;2.40;;;36.60;99.90;;;;;;5023569;28;20909;-79
2022/06/24 11:45:36;;;;;;;4.20;2.53;;;36.40;99.90;;;;;;5040245;28;20536;-80
2022/06/24 11:48:03;;;;;;;3.23;2.37;;;36.20;99.90;;;;;;5027558;28;20473;-81
2022/06/24 11:50:29;;;;;;;2.67;2.47;;;35.40;99.90;;;;;;5032926;28;20428;-79
2022/06/24 11:52:57;;;;;;;3.00;2.50;;;35.40;99.90;;;;;;5031146;28;20440;-81
2022/06/24 11:55:29;;;;;;;3.93;2.37;;;36.20;99.90;;;;;;5027590;28;20225;-80
2022/06/24 11:57:57;;;;;;;4.33;2.07;;;37.30;99.90;;;;;;5023874;28;20457;-79
2022/06/24 12:00:41;;;;;;;3.60;2.60;;;36.70;99.90;;;;;;5042988;28;20464;-81
2022/06/24 12:03:08;;;;;;;2.73;2.47;;;36.30;99.90;;;;;;5047362;28;20987;-79
2022/06/24 12:05:38;;;;;;;2.80;2.23;;;36.30;99.90;;;;;;5028994;28;20750;-80
2022/06/24 12:08:13;;;;;;;2.13;1.80;;;36.30;99.90;;;;;;5024489;28;20617;-80
2022/06/24 12:10:54;;;;;;;2.93;1.80;;;37.00;99.90;;;;;;5026262;28;20443;-80
2022/06/24 12:13:29;;;;;;;3.53;2.00;;;38.10;99.90;;;;;;5023734;28;20441;-81
2022/06/24 12:15:56;;;;;;;2.77;1.93;;;39.00;99.90;;;;;;5028921;28;20470;-80
2022/06/24 12:18:23;;;;;;;3.10;2.20;;;39.40;99.90;;;;;;5020431;28;20469;-79
2022/06/24 12:20:59;;;;;;;2.60;1.77;;;39.10;99.90;;;;;;5025930;28;20528;-80
2022/06/24 12:23:30;;;;;;;2.37;1.93;;;39.20;99.90;;;;;;5027258;28;20448;-81
2022/06/24 12:25:56;;;;;;;3.00;2.00;;;39.40;99.90;;;;;;5024079;28;20440;-80
2022/06/24 12:28:24;;;;;;;4.00;2.07;;;39.60;99.90;;;;;;5029861;28;20445;-83
2022/06/24 12:30:58;;;;;;;6.17;2.30;;;39.70;99.90;;;;;;5024174;28;20721;-79
2022/06/24 12:33:27;;;;;;;4.00;2.43;;;39.70;99.90;;;;;;5026704;28;20520;-80
2022/06/24 12:36:02;;;;;;;2.20;1.87;;;39.80;99.90;;;;;;5025536;28;20440;-80
2022/06/24 12:38:28;;;;;;;2.90;1.80;;;39.60;99.90;;;;;;5030249;28;20845;-80
2022/06/24 12:41:08;;;;;;;4.60;1.97;;;39.70;99.90;;;;;;5029108;28;20536;-80
2022/06/24 12:43:33;;;;;;;3.17;1.77;;;39.30;99.90;;;;;;5031008;28;20328;-80
2022/06/24 12:46:03;;;;;;;2.63;2.00;;;39.30;99.90;;;;;;5027182;28;20446;-81
2022/06/24 12:51:24;;;;;;;2.17;1.97;;;39.00;99.90;;;;;;5027314;28;20443;-80
2022/06/24 12:53:50;;;;;;;1.90;1.60;;;38.60;99.90;;;;;;5029532;28;20479;-79
2022/06/24 12:56:15;;;;;;;1.90;1.80;;;37.70;99.90;;;;;;5020205;28;20449;-80
2022/06/24 12:58:41;;;;;;;3.13;2.13;;;37.50;99.90;;;;;;5026504;28;20478;-80
2022/06/24 13:01:06;;;;;;;4.40;2.00;;;36.80;99.90;;;;;;5025772;28;20178;-79
2022/06/24 13:03:33;;;;;;;2.43;1.80;;;36.10;99.90;;;;;;5028532;28;20186;-81
2022/06/24 13:05:58;;;;;;;2.53;2.20;;;35.90;99.90;;;;;;5027634;28;20182;-81